Time;durP1;ratioP1;P1;durP2;ratioP2;P2;SDS_P1;SDS_P2;PMS_P1;PMS_P2;Temp;Humidity;BMP_temperature;BMP_pressure;BME280_temperature;BME280_humidity;BME280_pressure;Samples;Min_cycle;Max_cycle;Signal;HPM_P1;HPM_P2
2022/09/23 00:00:47;;;;;;;4.70;4.50;;;;;;;7.85;100.00;101329.72;6097086;23;20025;-71
2022/09/23 00:03:15;;;;;;;5.82;5.53;;;;;;;8.84;100.00;101481.81;6111630;23;20013;-73
2022/09/23 00:05:41;;;;;;;4.75;4.45;;;;;;;7.69;100.00;101287.53;6087764;23;20022;-73
2022/09/23 00:08:11;;;;;;;4.57;4.35;;;;;;;8.85;100.00;101481.75;6137463;23;20022;-73
2022/09/23 00:10:38;;;;;;;6.45;5.95;;;;;;;8.76;100.00;101474.22;6094731;23;20029;-74
2022/09/23 00:13:05;;;;;;;5.90;5.50;;;;;;;8.63;100.00;101438.88;6109385;23;20598;-74
2022/09/23 00:15:37;;;;;;;6.45;6.10;;;;;;;8.85;100.00;101475.69;6097725;23;20065;-74
2022/09/23 00:18:04;;;;;;;5.70;5.30;;;;;;;8.84;100.00;101480.06;6120217;23;20017;-73
2022/09/23 00:20:35;;;;;;;6.35;6.05;;;;;;;8.82;100.00;101476.66;6110583;23;20298;-74
2022/09/23 00:23:02;;;;;;;5.25;4.95;;;;;;;8.08;100.00;101353.38;6140500;23;20094;-74
2022/09/23 00:25:28;;;;;;;6.80;6.25;;;;;;;8.82;100.00;101465.28;6102806;23;20022;-74
2022/09/23 00:27:55;;;;;;;5.75;5.35;;;;;;;8.18;100.00;101365.25;6109567;23;20078;-73
2022/09/23 00:30:22;;;;;;;6.10;5.70;;;;;;;8.67;100.00;101464.03;6104493;23;20063;-73
2022/09/23 00:32:48;;;;;;;4.93;4.63;;;;;;;8.30;100.00;101386.69;6099439;23;20079;-75
2022/09/23 00:35:15;;;;;;;4.55;4.32;;;;;;;8.17;100.00;101373.16;6125818;23;20033;-74
2022/09/23 00:37:41;;;;;;;5.18;4.78;;;;;;;8.56;100.00;101435.63;6080666;23;20637;-73
2022/09/23 00:40:09;;;;;;;4.65;4.35;;;;;;;8.43;100.00;101429.03;6133146;23;20090;-73
2022/09/23 00:42:35;;;;;;;5.63;5.32;;;;;;;8.30;100.00;101398.03;6101965;23;20180;-73
2022/09/23 00:45:03;;;;;;;5.45;5.15;;;;;;;8.68;100.00;101452.66;6114291;23;20014;-74
2022/09/23 00:47:51;;;;;;;6.32;5.88;;;;;;;8.66;100.00;101467.53;6091552;23;20036;-74
2022/09/23 00:50:24;;;;;;;4.28;4.05;;;;;;;8.60;100.00;101463.38;6129664;23;20059;-73
2022/09/23 00:52:55;;;;;;;4.50;4.30;;;;;;;8.56;100.00;101461.78;6099348;23;20024;-74
2022/09/23 00:55:27;;;;;;;6.00;5.60;;;;;;;8.52;100.00;101453.16;6118105;23;20014;-72
2022/09/23 00:57:57;;;;;;;4.45;4.18;;;;;;;8.02;100.00;101378.84;6097529;23;20450;-73
2022/09/23 01:00:23;;;;;;;6.45;6.03;;;;;;;7.76;100.00;101333.47;6134676;23;20020;-73
2022/09/23 01:02:50;;;;;;;4.35;4.15;;;;;;;8.14;100.00;101399.41;6074465;23;20665;-72
2022/09/23 01:05:17;;;;;;;4.63;4.43;;;;;;;8.41;100.00;101438.66;6112727;23;20028;-75
2022/09/23 01:07:45;;;;;;;4.22;4.03;;;;;;;8.38;100.00;101444.88;6107725;23;20025;-72
2022/09/23 01:10:15;;;;;;;4.53;4.22;;;;;;;7.25;100.00;101255.75;6106192;23;20026;-74
2022/09/23 01:13:05;;;;;;;5.05;4.55;;;;;;;8.35;100.00;101443.19;6096965;23;20482;-74
2022/09/23 01:15:43;;;;;;;6.07;5.70;;;;;;;8.32;100.00;101435.44;6124309;23;20016;-74
2022/09/23 01:18:46;;;;;;;4.75;4.55;;;;;;;8.32;100.00;101435.44;6091671;23;20079;-71
2022/09/23 01:21:51;;;;;;;4.10;3.90;;;;;;;8.33;100.00;101437.13;6135491;23;20021;-73
2022/09/23 01:24:56;;;;;;;4.78;4.57;;;;;;;7.99;100.00;101383.25;6073958;23;20029;-73
2022/09/23 01:27:39;;;;;;;5.38;4.90;;;;;;;7.85;100.00;101363.69;6088602;23;20009;-74
2022/09/23 01:30:15;;;;;;;;;;;;;;;8.33;100.00;101454.59;6104456;23;20018;-73
2022/09/23 01:33:03;;;;;;;4.57;4.35;;;;;;;7.85;100.00;101353.22;6125555;23;19920;-72
2022/09/23 01:36:03;;;;;;;6.22;5.82;;;;;;;7.61;100.00;101306.03;6100048;23;20077;-73
2022/09/23 01:38:40;;;;;;;6.40;6.00;;;;;;;8.29;100.00;101419.81;6136096;23;20013;-74
2022/09/23 01:41:24;;;;;;;5.05;4.85;;;;;;;8.32;100.00;101414.53;6109661;23;20079;-74
2022/09/23 01:44:00;;;;;;;4.30;4.10;;;;;;;7.44;100.00;101266.50;6127470;23;20017;-73
2022/09/23 01:46:31;;;;;;;4.65;4.45;;;;;;;8.29;100.00;101411.97;6101666;23;20018;-74
2022/09/23 01:49:21;;;;;;;5.13;4.70;;;;;;;8.30;100.00;101408.47;6112378;23;20062;-73
2022/09/23 01:52:08;;;;;;;4.68;4.43;;;;;;;7.98;100.00;101373.72;6105907;23;20010;-73
2022/09/23 01:54:41;;;;;;;5.65;5.35;;;;;;;7.68;100.00;101309.34;6136012;23;20023;-73
2022/09/23 01:57:14;;;;;;;4.55;4.35;;;;;;;8.28;100.00;101415.53;6094305;23;20026;-74
2022/09/23 01:59:50;;;;;;;4.90;4.70;;;;;;;8.26;100.00;101406.88;6127876;23;20636;-74
2022/09/23 02:02:28;;;;;;;4.97;4.68;;;;;;;6.69;100.00;101139.94;6082979;23;21283;-73
2022/09/23 02:05:17;;;;;;;4.88;4.57;;;;;;;8.29;100.00;101398.91;6111697;23;20021;-73
2022/09/23 02:07:50;;;;;;;4.72;4.45;;;;;;;7.58;100.00;101293.09;6106349;23;20037;-73
2022/09/23 02:10:32;;;;;;;4.32;4.13;;;;;;;8.11;100.00;101383.81;6110462;23;20017;-73
2022/09/23 02:13:06;;;;;;;4.70;4.50;;;;;;;7.78;100.00;101345.59;6104639;23;20033;-72
2022/09/23 02:15:43;;;;;;;5.82;5.53;;;;;;;7.60;100.00;101304.34;6127741;23;20017;-73
2022/09/23 02:18:28;;;;;;;5.45;5.07;;;;;;;8.07;100.00;101390.03;6101499;23;20663;-73
2022/09/23 02:20:59;;;;;;;5.03;4.75;;;;;;;7.65;100.00;101341.63;6102690;23;20021;-73
2022/09/23 02:23:44;;;;;;;6.10;5.80;;;;;;;8.03;100.00;101396.25;6089790;23;20028;-75
2022/09/23 02:26:18;;;;;;;4.40;4.20;;;;;;;7.85;100.00;101374.13;6106645;23;20020;-74
2022/09/23 02:28:56;;;;;;;4.63;4.32;;;;;;;7.99;100.00;101378.03;6094533;23;20100;-74
2022/09/23 02:31:34;;;;;;;5.80;5.50;;;;;;;7.19;100.00;101262.00;6106930;23;20637;-72
2022/09/23 02:34:07;;;;;;;4.78;4.53;;;;;;;7.88;100.00;101381.91;6100744;23;20635;-74
2022/09/23 02:36:43;;;;;;;;;;;;;;;7.87;100.00;101377.56;6136917;23;20044;-74
2022/09/23 02:39:12;;;;;;;4.10;3.90;;;;;;;7.70;100.00;101365.00;6108978;23;19909;-73
2022/09/23 02:41:54;;;;;;;4.05;3.85;;;;;;;7.86;100.00;101376.72;6070322;23;20025;-73
2022/09/23 02:44:22;;;;;;;5.50;5.22;;;;;;;7.30;100.00;101286.06;6122832;23;20020;-72
2022/09/23 02:46:52;;;;;;;4.53;4.25;;;;;;;6.86;100.00;101207.28;6102113;23;20017;-71
2022/09/23 02:49:29;;;;;;;4.43;4.22;;;;;;;7.78;100.00;101365.63;6122610;23;20017;-72
2022/09/23 02:52:02;;;;;;;4.97;4.68;;;;;;;7.55;100.00;101330.56;6104333;23;20033;-73
2022/09/23 02:54:29;;;;;;;5.93;5.63;;;;;;;7.46;100.00;101315.19;6130820;23;20067;-73
2022/09/23 02:56:56;;;;;;;5.10;4.80;;;;;;;7.75;100.00;101365.72;6081951;23;20078;-73
2022/09/23 02:59:23;;;;;;;6.25;5.65;;;;;;;7.72;100.00;101361.44;6128553;23;20078;-74
2022/09/23 03:02:13;;;;;;;4.20;4.00;;;;;;;7.67;100.00;101360.72;6100683;23;20037;-73
2022/09/23 03:05:30;;;;;;;4.63;4.40;;;;;;;7.39;100.00;101314.50;6125511;23;20079;-73
2022/09/23 03:08:27;;;;;;;4.18;3.97;;;;;;;7.68;100.00;101369.44;6095040;23;20079;-75
2022/09/23 03:11:03;;;;;;;4.20;4.00;;;;;;;7.65;100.00;101353.81;6132453;23;20047;-74
2022/09/23 03:13:41;;;;;;;5.07;4.88;;;;;;;7.45;100.00;101326.53;6099663;23;20029;-73
2022/09/23 03:16:35;;;;;;;3.88;3.67;;;;;;;7.44;100.00;101319.59;6138318;23;20017;-73
2022/09/23 03:19:27;;;;;;;4.50;4.20;;;;;;;7.64;100.00;101345.16;6105084;23;20033;-73
2022/09/23 03:22:18;;;;;;;4.40;4.10;;;;;;;7.65;100.00;101341.63;6104274;23;20025;-74
2022/09/23 03:24:46;;;;;;;4.13;3.92;;;;;;;7.19;100.00;101264.63;6100868;23;20013;-74
2022/09/23 03:27:24;;;;;;;5.20;4.90;;;;;;;7.24;100.00;101280.19;6134616;23;20036;-73
2022/09/23 03:29:53;;;;;;;4.53;4.32;;;;;;;7.53;100.00;101334.13;6094902;23;20014;-74
2022/09/23 03:32:22;;;;;;;4.95;4.65;;;;;;;7.49;100.00;101316.84;6114596;23;20870;-74
2022/09/23 03:34:52;;;;;;;4.53;4.22;;;;;;;7.31;100.00;101289.53;6077787;23;20021;-72
2022/09/23 03:37:54;;;;;;;4.20;4.00;;;;;;;7.58;100.00;101325.28;6128571;23;20194;-73
2022/09/23 03:40:30;;;;;;;3.97;3.78;;;;;;;7.28;100.00;101290.47;6101600;23;20025;-74
2022/09/23 03:43:00;;;;;;;4.05;3.85;;;;;;;7.53;100.00;101332.38;6136448;23;20025;-72
2022/09/23 03:45:31;;;;;;;4.78;4.57;;;;;;;7.49;100.00;101333.38;6072731;23;20014;-73
2022/09/23 03:47:58;;;;;;;4.45;4.15;;;;;;;7.42;100.00;101317.91;6133043;23;20048;-72
2022/09/23 03:50:24;;;;;;;5.43;5.13;;;;;;;7.34;100.00;101305.13;6098903;23;20589;-73
2022/09/23 03:52:51;;;;;;;4.38;4.18;;;;;;;7.30;100.00;101308.72;6133243;23;20033;-71
2022/09/23 03:55:18;;;;;;;4.45;4.22;;;;;;;7.50;100.00;101329.03;6104842;23;20028;-75
2022/09/23 03:57:45;;;;;;;4.53;4.22;;;;;;;7.43;100.00;101328.31;6138511;23;20033;-73
2022/09/23 04:00:13;;;;;;;4.20;4.00;;;;;;;7.25;100.00;101321.88;6095737;23;20033;-73
2022/09/23 04:02:39;;;;;;;4.22;4.03;;;;;;;7.03;100.00;101279.88;6125373;23;20077;-73
2022/09/23 04:05:07;;;;;;;4.10;3.90;;;;;;;7.26;100.00;101318.38;6097029;23;20387;-73
2022/09/23 04:07:34;;;;;;;7.90;4.18;;;;;;;7.03;100.00;101272.03;6130258;23;20020;-72
2022/09/23 04:10:00;;;;;;;4.45;4.18;;;;;;;7.22;100.00;101289.78;6085939;23;20333;-74
2022/09/23 04:12:26;;;;;;;5.25;5.05;;;;;;;6.86;100.00;101233.38;6107217;23;20067;-74
2022/09/23 04:14:53;;;;;;;4.30;4.07;;;;;;;7.24;100.00;101272.34;6116170;23;20021;-74
2022/09/23 04:17:19;;;;;;;4.72;4.43;;;;;;;6.93;100.00;101241.88;6128842;23;20013;-73
2022/09/23 04:19:45;;;;;;;4.35;4.10;;;;;;;6.73;100.00;101214.59;6096944;23;20063;-74
2022/09/23 04:22:12;;;;;;;3.90;3.70;;;;;;;6.92;100.00;101246.25;6135349;23;20662;-72
2022/09/23 04:24:38;;;;;;;4.50;4.20;;;;;;;6.97;100.00;101251.34;6100854;23;20033;-73
2022/09/23 04:27:05;;;;;;;4.22;4.03;;;;;;;7.01;100.00;101266.00;6131577;23;20059;-73
2022/09/23 04:29:31;;;;;;;5.65;5.35;;;;;;;7.11;100.00;101283.09;6103900;23;20102;-74
2022/09/23 04:31:57;;;;;;;4.80;4.40;;;;;;;6.46;100.00;101189.28;6108950;23;21766;-73
2022/09/23 04:34:24;;;;;;;5.22;5.03;;;;;;;7.03;100.00;101289.44;6102868;23;20020;-73
2022/09/23 04:36:50;;;;;;;4.80;4.55;;;;;;;6.93;100.00;101276.66;6140820;23;20103;-75
2022/09/23 04:39:18;;;;;;;4.28;3.97;;;;;;;6.96;100.00;101288.78;6108150;23;20029;-73
2022/09/23 04:41:44;;;;;;;4.10;3.90;;;;;;;6.75;100.00;101257.13;6081489;23;20024;-74
2022/09/23 04:44:12;;;;;;;4.30;4.03;;;;;;;6.93;100.00;101274.03;6140139;23;20109;-74
2022/09/23 04:46:40;;;;;;;4.00;3.80;;;;;;;6.88;100.00;101252.47;6107985;23;20029;-74
2022/09/23 04:49:07;;;;;;;4.40;4.20;;;;;;;6.92;100.00;101242.78;6120055;23;20017;-74
2022/09/23 04:51:34;;;;;;;6.00;5.63;;;;;;;6.88;100.00;101236.81;6103427;23;20478;-74
2022/09/23 04:54:01;;;;;;;4.10;3.90;;;;;;;7.09;100.00;101257.97;6105962;23;20017;-74
2022/09/23 04:56:32;;;;;;;5.55;5.25;;;;;;;7.07;100.00;101259.75;6128366;23;20025;-74
2022/09/23 04:59:00;;;;;;;4.05;3.85;;;;;;;6.55;100.00;101181.19;6096418;23;20048;-73
2022/09/23 05:01:29;;;;;;;5.70;5.35;;;;;;;6.84;100.00;101244.78;6121099;23;20047;-74
2022/09/23 05:04:01;;;;;;;5.82;5.43;;;;;;;6.57;100.00;101189.84;6104611;23;20063;-75
2022/09/23 05:06:30;;;;;;;5.03;4.82;;;;;;;6.74;100.00;101218.06;6130610;23;20033;-75
2022/09/23 05:08:57;;;;;;;5.18;4.72;;;;;;;6.70;100.00;101221.66;6100947;23;20035;-75
2022/09/23 05:11:25;;;;;;;5.00;4.80;;;;;;;6.95;100.00;101266.19;6104617;23;20014;-74
2022/09/23 05:13:53;;;;;;;3.70;3.60;;;;;;;6.88;100.00;101262.91;6101718;23;21115;-73
2022/09/23 05:16:22;;;;;;;5.75;5.45;;;;;;;6.44;100.00;101191.94;6125139;23;20025;-74
2022/09/23 05:18:49;;;;;;;4.20;4.00;;;;;;;6.87;100.00;101262.94;6079834;23;20037;-74
2022/09/23 05:21:21;;;;;;;4.03;3.83;;;;;;;6.48;100.00;101195.31;6133757;23;21589;-74
2022/09/23 05:23:53;;;;;;;5.57;5.07;;;;;;;6.97;100.00;101251.34;6082980;23;20029;-73
2022/09/23 05:26:22;;;;;;;5.80;5.50;;;;;;;6.96;100.00;101266.16;6130964;23;20227;-73
2022/09/23 05:28:48;;;;;;;4.07;3.88;;;;;;;6.97;100.00;101256.56;6129688;23;20039;-73
2022/09/23 05:31:17;;;;;;;4.70;4.40;;;;;;;6.94;100.00;101262.72;6129501;23;20037;-74
2022/09/23 05:33:51;;;;;;;4.10;3.90;;;;;;;6.41;100.00;101181.56;6125754;23;20061;-72
2022/09/23 05:36:20;;;;;;;4.43;4.13;;;;;;;6.94;100.00;101267.09;6112958;23;20047;-73
2022/09/23 05:38:48;;;;;;;4.18;3.97;;;;;;;6.49;100.00;101195.25;6103754;23;20024;-75
2022/09/23 05:41:16;;;;;;;4.05;3.85;;;;;;;6.85;100.00;101249.06;6130180;23;20088;-76
2022/09/23 05:43:43;;;;;;;4.28;4.07;;;;;;;6.81;100.00;101253.50;6081458;23;20014;-74
2022/09/23 05:46:13;;;;;;;4.03;3.83;;;;;;;6.84;100.00;101252.59;6099815;23;20127;-74
2022/09/23 05:48:41;;;;;;;4.53;4.18;;;;;;;5.70;100.00;101057.53;6129496;23;20029;-76
2022/09/23 05:51:11;;;;;;;4.32;4.13;;;;;;;6.96;100.00;101245.25;6115666;23;20753;-74
2022/09/23 05:53:40;;;;;;;4.00;3.80;;;;;;;7.18;100.00;101268.16;6129912;23;20021;-75
2022/09/23 05:56:07;;;;;;;4.10;3.90;;;;;;;6.83;100.00;101203.91;6110881;23;20090;-74
2022/09/23 05:58:33;;;;;;;5.47;5.18;;;;;;;6.59;100.00;101169.78;6139944;23;20090;-76
2022/09/23 06:00:59;;;;;;;4.05;3.85;;;;;;;7.09;100.00;101213.59;6105461;23;20025;-75
2022/09/23 06:03:26;;;;;;;9.13;8.48;;;;;;;7.04;100.00;101194.63;6127547;23;20097;-76
2022/09/23 06:05:54;;;;;;;4.95;4.65;;;;;;;7.27;100.00;101236.53;6109728;23;20017;-75
2022/09/23 06:08:22;;;;;;;5.20;4.90;;;;;;;7.64;100.00;101278.97;6108757;23;20608;-75
2022/09/23 06:10:49;;;;;;;5.28;4.90;;;;;;;7.74;100.00;101273.41;6137265;23;20041;-77
2022/09/23 06:13:20;;;;;;;4.47;4.28;;;;;;;7.82;100.00;101274.91;6109717;23;20406;-75
2022/09/23 06:15:46;;;;;;;4.35;4.15;;;;;;;7.62;100.00;101233.75;6078125;23;20526;-76
2022/09/23 06:18:12;;;;;;;4.13;3.92;;;;;;;7.79;100.00;101221.00;6114453;23;20685;-76
2022/09/23 06:20:39;;;;;;;4.60;4.30;;;;;;;7.99;100.00;101267.41;6090005;23;20590;-75
2022/09/23 06:23:07;;;;;;;4.30;4.05;;;;;;;7.23;100.00;101116.59;6073847;23;20032;-74
2022/09/23 06:25:40;;;;;;;5.63;4.90;;;;;;;7.88;100.00;101191.97;6107022;23;20091;-74
2022/09/23 06:28:10;;;;;;;4.50;4.30;;;;;;;8.40;100.00;101267.81;6089148;23;20091;-75
2022/09/23 06:30:38;;;;;;;5.63;5.22;;;;;;;8.22;100.00;101213.50;6071859;23;20403;-75
2022/09/23 06:33:04;;;;;;;4.30;4.10;;;;;;;8.52;100.00;101240.38;6055656;23;20078;-76
2022/09/23 06:35:34;;;;;;;5.97;5.63;;;;;;;8.54;100.00;101221.13;6114886;23;20260;-75
2022/09/23 06:38:03;;;;;;;4.72;4.43;;;;;;;6.87;100.00;100968.97;6108584;23;20579;-76
2022/09/23 06:40:30;;;;;;;5.45;5.15;;;;;;;8.75;100.00;101248.28;6101263;23;20013;-74
2022/09/23 06:42:59;;;;;;;4.45;4.25;;;;;;;8.52;100.00;101190.69;6108133;23;20033;-75
2022/09/23 06:45:26;;;;;;;5.75;5.45;;;;;;;9.10;100.00;101269.72;6064604;23;20022;-75
2022/09/23 06:47:57;;;;;;;5.13;4.75;;;;;;;9.28;100.00;101259.47;6096181;23;20028;-76
2022/09/23 06:50:25;;;;;;;6.60;6.20;;;;;;;9.54;100.00;101268.94;6077514;23;20030;-75
2022/09/23 06:52:54;;;;;;;5.00;4.70;;;;;;;9.66;100.00;101236.16;6099938;23;20078;-75
2022/09/23 06:55:26;;;;;;;5.53;5.22;;;;;;;10.10;100.00;101263.22;6110012;23;20008;-73
2022/09/23 06:57:56;;;;;;;5.25;4.95;;;;;;;10.25;100.00;101256.47;6087316;23;20524;-76
2022/09/23 07:00:24;;;;;;;6.40;6.00;;;;;;;10.10;100.00;101218.66;6082620;23;20025;-75
2022/09/23 07:02:50;;;;;;;5.20;4.90;;;;;;;10.65;100.00;101256.59;6069649;23;20029;-76
2022/09/23 07:05:17;;;;;;;8.07;5.28;;;;;;;10.21;100.00;101162.25;6046602;23;20034;-75
2022/09/23 07:07:43;;;;;;;5.50;5.10;;;;;;;10.93;100.00;101258.84;6089750;23;20775;-76
2022/09/23 07:10:10;;;;;;;5.18;4.95;;;;;;;9.33;100.00;100958.94;6101764;23;20095;-76
2022/09/23 07:12:37;;;;;;;5.80;5.40;;;;;;;11.07;100.00;101213.56;6106583;23;20339;-75
2022/09/23 07:15:04;;;;;;;5.97;5.53;;;;;;;11.42;100.00;101255.75;6108339;23;20006;-75
2022/09/23 07:17:30;;;;;;;6.57;6.03;;;;;;;10.97;100.00;101169.34;6098886;23;20009;-74
2022/09/23 07:19:57;;;;;;;5.15;4.85;;;;;;;11.09;100.00;101161.81;6106123;23;20091;-75
2022/09/23 07:22:25;;;;;;;6.10;5.80;;;;;;;11.14;100.00;101154.56;6092769;23;20474;-74
2022/09/23 07:24:55;;;;;;;6.22;5.82;;;;;;;11.82;100.00;101265.22;6111382;23;20057;-76
2022/09/23 07:27:24;;;;;;;6.50;6.10;;;;;;;11.86;100.00;101274.66;6099284;23;20158;-74
2022/09/23 07:29:51;;;;;;;5.00;4.80;;;;;;;12.02;98.97;101279.22;6079992;23;20156;-74
2022/09/23 07:32:19;;;;;;;5.80;5.40;;;;;;;11.64;98.24;101213.53;6106759;23;20078;-75
2022/09/23 07:34:46;;;;;;;5.80;5.40;;;;;;;11.95;98.32;101269.00;6082311;23;20115;-76
2022/09/23 07:37:16;;;;;;;5.75;5.35;;;;;;;10.94;97.99;101095.97;6078993;23;20037;-74
2022/09/23 07:39:44;;;;;;;5.32;5.03;;;;;;;12.08;97.90;101269.22;6054492;23;20032;-75
2022/09/23 07:42:13;;;;;;;5.60;5.20;;;;;;;12.28;98.08;101277.94;6086633;23;20094;-76
2022/09/23 07:44:45;;;;;;;6.07;5.68;;;;;;;12.29;97.64;101277.00;6107944;23;20509;-76
2022/09/23 07:47:12;;;;;;;6.30;5.85;;;;;;;12.03;97.44;101228.28;6077864;23;20022;-75
2022/09/23 07:49:39;;;;;;;6.18;5.78;;;;;;;12.50;96.14;101268.00;6084605;23;20091;-75
2022/09/23 07:52:05;;;;;;;6.20;5.60;;;;;;;11.94;94.71;101177.00;6112554;23;20100;-74
2022/09/23 07:54:32;;;;;;;6.32;5.95;;;;;;;12.37;95.99;101230.94;6091597;23;20021;-74
2022/09/23 07:56:59;;;;;;;5.72;5.32;;;;;;;12.71;95.75;101273.13;6114741;23;20025;-75
2022/09/23 07:59:26;;;;;;;6.07;5.78;;;;;;;12.30;92.89;101211.13;6103390;23;20307;-76
2022/09/23 08:01:53;;;;;;;5.20;4.95;;;;;;;12.65;94.27;101268.13;6082591;23;20085;-75
2022/09/23 08:04:27;;;;;;;6.53;6.13;;;;;;;12.80;94.31;101274.41;6085848;23;20009;-74
2022/09/23 08:06:59;;;;;;;5.40;5.10;;;;;;;12.61;92.96;101225.34;6105918;23;20067;-75
2022/09/23 08:09:32;;;;;;;6.95;6.55;;;;;;;12.69;93.40;101238.09;6090656;23;20021;-76
2022/09/23 08:11:59;;;;;;;5.80;5.50;;;;;;;13.00;92.88;101276.84;6076294;23;21407;-78
2022/09/23 08:14:26;;;;;;;7.03;6.63;;;;;;;13.07;92.67;101280.88;6075058;23;20456;-75
2022/09/23 08:16:53;;;;;;;6.45;5.95;;;;;;;12.92;91.80;101258.81;6093001;23;20083;-75
2022/09/23 08:19:19;;;;;;;7.32;6.82;;;;;;;12.35;91.33;101156.47;6084523;23;20034;-75
2022/09/23 08:21:46;;;;;;;6.25;5.85;;;;;;;13.10;90.93;101256.13;6037458;23;20022;-75
2022/09/23 08:24:15;;;;;;;5.90;5.50;;;;;;;12.98;89.95;101210.22;6076873;23;20104;-75
2022/09/23 08:26:43;;;;;;;5.75;5.45;;;;;;;13.48;88.97;101258.50;6071014;23;20022;-75
2022/09/23 08:29:17;;;;;;;5.75;5.35;;;;;;;12.90;86.88;101151.81;6096303;23;20033;-74
2022/09/23 08:31:44;;;;;;;6.28;5.78;;;;;;;13.81;87.14;101265.44;6073469;23;20025;-74
2022/09/23 08:34:11;;;;;;;5.55;5.15;;;;;;;13.88;84.26;101262.38;6102751;23;20059;-72
2022/09/23 08:36:37;;;;;;;5.60;5.30;;;;;;;13.92;85.91;101249.84;6063002;23;20034;-74
2022/09/23 08:39:04;;;;;;;5.60;5.20;;;;;;;14.11;84.37;101268.09;6099401;23;20037;-73
2022/09/23 08:41:55;;;;;;;6.82;6.32;;;;;;;14.24;82.35;101262.97;6097728;23;20082;-75
2022/09/23 08:44:42;;;;;;;7.82;7.32;;;;;;;14.71;81.71;101256.69;6063303;23;20092;-74
2022/09/23 08:47:30;;;;;;;5.45;5.00;;;;;;;14.48;78.33;101221.06;6101155;23;20013;-74
2022/09/23 08:50:20;;;;;;;6.55;5.95;;;;;;;14.05;78.65;101140.00;6085800;23;20085;-72
2022/09/23 08:52:52;;;;;;;6.03;5.72;;;;;;;14.76;79.56;101223.75;6070028;23;20014;-73
2022/09/23 08:55:27;;;;;;;5.95;5.57;;;;;;;14.71;78.81;101185.34;6098081;23;21770;-73
2022/09/23 08:58:20;;;;;;;6.30;5.90;;;;;;;15.02;77.70;101250.38;6099400;23;20400;-73
2022/09/23 09:01:09;;;;;;;5.80;5.50;;;;;;;14.92;77.58;101251.88;6104437;23;20009;-73
2022/09/23 09:03:44;;;;;;;7.28;6.60;;;;;;;14.71;79.01;101201.19;6071864;23;20422;-73
2022/09/23 09:06:33;;;;;;;6.50;6.00;;;;;;;14.81;78.27;101209.41;6103315;23;20087;-76
2022/09/23 09:09:22;;;;;;;5.85;5.45;;;;;;;14.65;79.23;101205.06;6111810;23;20048;-75
2022/09/23 09:11:54;;;;;;;5.72;5.38;;;;;;;14.80;78.54;101260.56;6101462;23;20778;-74
2022/09/23 09:14:32;;;;;;;7.00;6.10;;;;;;;14.83;79.02;101261.22;6108093;23;20005;-73
2022/09/23 09:17:19;;;;;;;5.40;5.10;;;;;;;15.01;80.69;101258.38;6098455;23;20025;-76
2022/09/23 09:20:06;;;;;;;5.88;5.38;;;;;;;14.97;79.36;101244.50;6103874;23;20020;-74
2022/09/23 09:23:18;;;;;;;6.93;6.53;;;;;;;14.85;78.46;101243.47;6110720;23;20830;-74
2022/09/23 09:25:49;;;;;;;5.00;4.75;;;;;;;15.13;78.85;101258.50;6068551;23;20087;-76
2022/09/23 09:28:29;;;;;;;5.28;4.97;;;;;;;15.18;79.61;101258.19;6108712;23;20703;-75
2022/09/23 09:31:00;;;;;;;5.55;5.25;;;;;;;15.10;77.20;101223.47;6081519;23;20002;-74
2022/09/23 09:33:43;;;;;;;6.30;5.97;;;;;;;15.09;76.62;101219.94;6099615;23;20085;-75
2022/09/23 09:36:22;;;;;;;6.07;5.68;;;;;;;15.33;75.71;101246.66;6079109;23;20084;-73
2022/09/23 09:38:50;;;;;;;6.32;5.47;;;;;;;15.37;76.14;101244.66;6107319;23;20078;-75
2022/09/23 09:41:20;;;;;;;5.93;5.53;;;;;;;15.63;74.72;101236.84;6092884;23;20017;-76
2022/09/23 09:43:56;;;;;;;6.07;5.63;;;;;;;15.86;73.70;101230.94;6067886;23;20014;-75
2022/09/23 09:46:43;;;;;;;6.00;5.60;;;;;;;14.86;73.54;101099.84;6051006;23;20021;-75
2022/09/23 09:49:36;;;;;;;5.47;5.18;;;;;;;16.08;73.48;101240.09;6088945;23;20021;-74
2022/09/23 09:52:21;;;;;;;6.50;5.85;;;;;;;16.22;73.81;101231.25;6069831;23;20014;-75
2022/09/23 09:54:49;;;;;;;6.20;5.80;;;;;;;16.24;72.39;101193.09;6113637;23;20018;-77
2022/09/23 09:57:35;;;;;;;6.30;5.78;;;;;;;15.64;71.70;101087.75;6078921;23;20454;-76
2022/09/23 10:00:20;;;;;;;6.13;5.20;;;;;;;16.66;71.32;101225.53;6082519;23;20300;-76
2022/09/23 10:02:52;;;;;;;6.45;5.90;;;;;;;16.91;69.93;101230.00;6078558;23;20435;-75
2022/09/23 10:05:29;;;;;;;6.18;5.78;;;;;;;16.81;68.39;101220.13;6108685;23;20013;-75
2022/09/23 10:07:55;;;;;;;5.60;5.30;;;;;;;16.22;68.95;101114.72;6060810;23;20080;-76
2022/09/23 10:10:24;;;;;;;6.40;6.00;;;;;;;16.78;68.39;101148.75;6110504;23;20021;-76
2022/09/23 10:13:13;;;;;;;6.30;5.57;;;;;;;17.17;69.08;101216.69;6082964;23;20029;-76
2022/09/23 10:15:42;;;;;;;6.53;6.03;;;;;;;16.99;68.06;101194.16;6089755;23;20029;-76
2022/09/23 10:18:18;;;;;;;6.20;5.80;;;;;;;17.46;67.93;101222.56;6065191;23;20034;-75
2022/09/23 10:20:46;;;;;;;5.65;5.35;;;;;;;17.67;67.47;101221.94;6113206;23;20032;-75
2022/09/23 10:23:23;;;;;;;7.25;5.75;;;;;;;17.17;66.87;101173.41;6074125;23;20022;-75
2022/09/23 10:26:01;;;;;;;5.60;5.30;;;;;;;17.35;68.48;101223.31;6106806;23;20016;-74
2022/09/23 10:28:39;;;;;;;6.53;6.20;;;;;;;17.34;68.23;101226.94;6084396;23;20089;-75
2022/09/23 10:31:14;;;;;;;5.57;5.28;;;;;;;17.68;67.54;101226.25;6110327;23;20032;-75
2022/09/23 10:33:59;;;;;;;5.90;5.50;;;;;;;17.72;68.30;101194.09;6101016;23;20024;-75
2022/09/23 10:36:27;;;;;;;6.47;6.18;;;;;;;18.22;66.60;101216.97;6096576;23;20080;-73
2022/09/23 10:48:20;;;;;;;6.55;5.70;;;;;;;18.55;64.64;101200.25;6076406;23;20018;-75
2022/09/23 10:50:49;;;;;;;5.82;5.53;;;;;;;18.42;60.97;101202.16;6104003;23;20026;-75
2022/09/23 10:53:34;;;;;;;6.95;5.75;;;;;;;18.50;62.73;101194.44;6095512;23;20018;-75
2022/09/23 10:56:12;;;;;;;6.00;5.50;;;;;;;18.69;63.10;101192.03;6101066;23;20075;-75
2022/09/23 10:59:06;;;;;;;6.43;6.00;;;;;;;18.70;57.59;101215.00;6116611;23;20751;-74
2022/09/23 11:01:59;;;;;;;7.43;6.97;;;;;;;18.76;58.70;101192.38;6102842;23;20033;-75
2022/09/23 11:04:40;;;;;;;8.43;7.10;;;;;;;18.81;59.88;101184.09;6100870;23;20018;-75
2022/09/23 11:07:39;;;;;;;8.93;8.45;;;;;;;18.67;61.75;101201.09;6092066;23;20128;-76
2022/09/23 11:11:00;;;;;;;6.50;6.00;;;;;;;18.84;60.91;101194.47;6086044;23;20022;-76
2022/09/23 11:13:51;;;;;;;6.90;6.50;;;;;;;18.83;62.89;101195.47;5979260;23;20092;-76
2022/09/23 11:16:57;;;;;;;6.45;6.10;;;;;;;18.92;61.80;101205.34;6103150;23;20024;-75
2022/09/23 11:19:31;;;;;;;;;;;;;;;18.73;60.14;101198.81;6121120;23;20009;-75
2022/09/23 11:22:03;;;;;;;6.20;5.90;;;;;;;18.74;59.59;101194.31;6095435;23;19983;-75
2022/09/23 11:24:49;;;;;;;6.85;6.45;;;;;;;18.92;60.07;101181.41;6133486;23;20044;-75
2022/09/23 11:27:41;;;;;;;6.00;5.70;;;;;;;18.42;61.81;101131.28;6112434;23;20483;-75
2022/09/23 11:30:08;;;;;;;6.82;6.22;;;;;;;18.62;61.58;101129.69;6123116;23;20025;-74
2022/09/23 11:32:54;;;;;;;7.50;6.97;;;;;;;18.02;62.33;101043.19;6122508;23;20017;-74
2022/09/23 11:35:28;;;;;;;6.63;6.28;;;;;;;18.99;61.26;101185.28;6087799;23;20023;-74
2022/09/23 11:38:02;;;;;;;5.80;5.50;;;;;;;19.25;61.40;101180.53;6117026;23;20062;-75
2022/09/23 11:40:35;;;;;;;7.70;7.20;;;;;;;19.23;59.41;101176.31;6125648;23;20442;-74
2022/09/23 11:43:24;;;;;;;6.00;5.60;;;;;;;19.24;59.75;101172.66;6123484;23;20029;-75
2022/09/23 11:45:59;;;;;;;;;;;;;;;19.20;59.77;101169.38;6113457;23;20026;-74
2022/09/23 11:48:35;;;;;;;7.63;7.03;;;;;;;18.91;60.15;101118.56;6130370;23;19932;-74
2022/09/23 11:51:04;;;;;;;6.20;5.80;;;;;;;18.88;59.66;101094.88;6080119;23;20021;-75
2022/09/23 11:53:39;;;;;;;7.28;6.88;;;;;;;19.26;60.78;101144.09;6102513;23;20031;-74
2022/09/23 11:56:36;;;;;;;5.70;5.40;;;;;;;19.56;59.94;101158.53;6079467;23;20025;-74
2022/09/23 11:59:17;;;;;;;5.80;5.50;;;;;;;19.69;59.35;101162.72;6123980;23;20088;-74
2022/09/23 12:02:34;;;;;;;5.95;5.65;;;;;;;19.20;56.84;101168.56;6128188;23;20120;-74
2022/09/23 12:05:08;;;;;;;6.30;6.00;;;;;;;19.45;59.73;101157.59;6070753;23;20177;-74
2022/09/23 12:07:52;;;;;;;7.20;6.82;;;;;;;19.25;60.39;101105.19;6101300;23;20034;-74